Time;durP1;ratioP1;P1;durP2;ratioP2;P2;SDS_P1;SDS_P2;PMS_P1;PMS_P2;Temp;Humidity;BMP_temperature;BMP_pressure;BME280_temperature;BME280_humidity;BME280_pressure;Samples;Min_cycle;Max_cycle;Signal;HPM_P1;HPM_P2
2021/12/24 00:01:48;;;;;;;52.77;30.90;;;3.90;99.90;;;;;;631699;227;26832;-82
2021/12/24 00:04:16;;;;;;;49.50;31.30;;;4.00;99.90;;;;;;624649;227;26590;-81
2021/12/24 00:06:43;;;;;;;52.40;32.33;;;4.10;99.90;;;;;;633637;226;26857;-81
2021/12/24 00:09:10;;;;;;;52.80;32.53;;;4.10;99.90;;;;;;636376;226;26587;-81
2021/12/24 00:11:37;;;;;;;50.13;32.83;;;4.00;99.90;;;;;;636454;222;26816;-80
2021/12/24 00:14:06;;;;;;;52.07;32.57;;;3.80;99.90;;;;;;636444;226;26620;-81
2021/12/24 00:16:40;;;;;;;51.53;31.03;;;4.00;99.90;;;;;;636340;226;27253;-81
2021/12/24 00:19:14;;;;;;;56.00;31.63;;;3.90;99.90;;;;;;632752;226;26575;-81
2021/12/24 00:22:12;;;;;;;52.13;31.20;;;3.90;99.90;;;;;;632555;227;26613;-81
2021/12/24 00:36:49;;;;;;;59.07;32.20;;;4.10;99.90;;;;;;628477;226;26601;-81
2021/12/24 00:39:17;;;;;;;53.83;33.10;;;4.00;99.90;;;;;;629494;224;26847;-80
2021/12/24 00:41:45;;;;;;;56.60;31.60;;;3.60;99.90;;;;;;629728;226;26594;-80
2021/12/24 00:44:11;;;;;;;57.23;33.97;;;3.70;99.90;;;;;;629708;226;26980;-83
2021/12/24 00:46:38;;;;;;;61.47;33.50;;;3.70;99.90;;;;;;631543;226;26535;-83
2021/12/24 00:49:05;;;;;;;58.67;32.23;;;3.60;99.90;;;;;;627194;226;26817;-83
2021/12/24 00:51:55;;;;;;;56.37;32.87;;;3.40;99.90;;;;;;624717;226;26547;-83
2021/12/24 00:56:33;;;;;;;59.00;33.47;;;3.60;99.90;;;;;;631891;226;26623;-83
2021/12/24 00:59:01;;;;;;;55.20;33.60;;;3.70;99.90;;;;;;627681;226;26591;-83
2021/12/24 01:01:27;;;;;;;63.93;34.70;;;3.90;99.90;;;;;;633983;226;26635;-83
2021/12/24 01:03:54;;;;;;;60.00;33.27;;;4.00;99.90;;;;;;633902;226;26622;-83
2021/12/24 01:06:22;;;;;;;59.77;33.13;;;4.00;99.90;;;;;;628846;226;26827;-82
2021/12/24 01:08:49;;;;;;;56.00;32.13;;;4.10;99.90;;;;;;629277;226;26597;-84
2021/12/24 01:11:16;;;;;;;56.87;33.30;;;4.20;99.90;;;;;;635251;221;26831;-83
2021/12/24 01:13:43;;;;;;;59.73;33.17;;;4.30;99.90;;;;;;631401;226;26843;-83
2021/12/24 01:16:23;;;;;;;57.33;32.30;;;4.00;99.90;;;;;;631660;226;26958;-82
2021/12/24 01:23:50;;;;;;;56.87;32.50;;;4.10;99.90;;;;;;635759;226;26531;-83
2021/12/24 01:26:22;;;;;;;56.80;33.30;;;4.00;99.90;;;;;;630155;226;26541;-83
2021/12/24 01:29:03;;;;;;;57.40;32.07;;;4.00;99.90;;;;;;629007;226;26860;-82
2021/12/24 01:38:59;;;;;;;54.57;30.97;;;4.90;99.90;;;;;;630209;225;26545;-83
2021/12/24 01:42:40;;;;;;;51.50;31.33;;;5.00;99.90;;;;;;631532;226;26571;-82
2021/12/24 01:43:47;;;;;;;54.30;31.83;;;5.00;99.90;;;;;;624561;226;26542;-83
2021/12/24 01:46:14;;;;;;;53.80;32.70;;;4.80;99.90;;;;;;636860;226;27092;-82
2021/12/24 01:48:42;;;;;;;57.50;31.53;;;4.80;99.90;;;;;;637004;226;26556;-83
2021/12/24 01:51:10;;;;;;;54.13;31.83;;;4.80;99.90;;;;;;632504;225;26643;-83
2021/12/24 01:53:37;;;;;;;50.00;29.57;;;4.70;99.90;;;;;;628892;226;26594;-83
2021/12/24 01:56:04;;;;;;;51.87;29.03;;;4.90;99.90;;;;;;634036;225;26596;-82
2021/12/24 01:58:31;;;;;;;48.40;28.30;;;5.00;99.90;;;;;;632654;222;26837;-83
2021/12/24 02:00:59;;;;;;;52.67;29.43;;;4.90;99.90;;;;;;633873;226;26967;-83
2021/12/24 02:03:26;;;;;;;45.23;28.00;;;4.50;99.90;;;;;;634534;226;26593;-83
2021/12/24 02:05:54;;;;;;;46.57;28.17;;;4.40;99.90;;;;;;627642;226;26812;-83
2021/12/24 02:08:22;;;;;;;53.27;29.90;;;4.50;99.90;;;;;;630393;226;26630;-83
2021/12/24 02:10:50;;;;;;;48.87;28.10;;;4.80;99.90;;;;;;625004;226;26590;-83
2021/12/24 02:13:17;;;;;;;46.83;27.83;;;4.80;99.90;;;;;;632278;226;26539;-83
2021/12/24 02:16:02;;;;;;;44.27;26.80;;;5.00;99.90;;;;;;626529;226;26573;-83
2021/12/24 02:18:37;;;;;;;46.00;27.70;;;4.90;99.90;;;;;;628569;226;26890;-83
2021/12/24 02:28:30;;;;;;;38.50;24.93;;;4.70;99.90;;;;;;623784;230;26573;-83
2021/12/24 02:30:49;;;;;;;39.30;24.80;;;4.60;99.90;;;;;;623161;230;26869;-83
2021/12/24 02:33:17;;;;;;;34.60;23.60;;;4.80;99.90;;;;;;630006;226;26572;-82
2021/12/24 02:35:44;;;;;;;40.20;25.40;;;5.00;99.90;;;;;;636481;226;26846;-82
2021/12/24 02:38:11;;;;;;;42.30;25.30;;;5.10;99.90;;;;;;636449;226;26551;-83
2021/12/24 02:40:39;;;;;;;40.33;24.17;;;4.80;99.90;;;;;;636433;226;26556;-82
2021/12/24 02:43:12;;;;;;;40.90;25.17;;;4.80;99.90;;;;;;635088;226;26595;-83
2021/12/24 02:45:35;;;;;;;42.07;23.53;;;4.50;99.90;;;;;;633308;226;26554;-82
2021/12/24 02:48:47;;;;;;;37.10;23.80;;;4.50;99.90;;;;;;625688;227;26862;-82
2021/12/24 02:55:46;;;;;;;36.50;22.80;;;4.50;99.90;;;;;;633586;226;27063;-82
2021/12/24 02:58:13;;;;;;;34.93;22.93;;;4.60;99.90;;;;;;624971;227;26551;-82
2021/12/24 03:00:40;;;;;;;35.27;22.03;;;4.60;99.90;;;;;;624516;230;26836;-82
2021/12/24 03:03:07;;;;;;;36.53;22.70;;;4.60;99.90;;;;;;624478;230;26591;-83
2021/12/24 03:05:36;;;;;;;36.03;22.33;;;4.90;99.90;;;;;;626686;226;26788;-83
2021/12/24 03:08:03;;;;;;;39.90;23.93;;;5.10;99.90;;;;;;628845;226;26894;-83
2021/12/24 03:10:31;;;;;;;35.73;22.40;;;5.10;99.90;;;;;;636680;226;26870;-83
2021/12/24 03:12:58;;;;;;;36.37;22.47;;;5.00;99.90;;;;;;636526;226;26744;-84
2021/12/24 03:15:26;;;;;;;35.93;22.43;;;5.10;99.90;;;;;;636660;221;26594;-82
2021/12/24 03:17:56;;;;;;;37.90;22.87;;;5.10;99.90;;;;;;635668;226;26909;-82
2021/12/24 03:20:20;;;;;;;35.43;21.53;;;5.10;99.90;;;;;;634241;226;26635;-83
2021/12/24 03:23:02;;;;;;;37.43;22.90;;;5.00;99.90;;;;;;633707;222;26854;-82
2021/12/24 03:25:18;;;;;;;32.70;21.50;;;5.00;99.90;;;;;;628916;226;26591;-82
2021/12/24 03:27:46;;;;;;;37.17;21.70;;;5.00;99.90;;;;;;630658;222;26570;-82
2021/12/24 03:30:15;;;;;;;34.37;21.97;;;5.10;99.90;;;;;;627718;227;26638;-83
2021/12/24 03:32:42;;;;;;;31.73;21.53;;;5.10;99.90;;;;;;623808;230;26601;-82
2021/12/24 03:35:11;;;;;;;36.37;21.33;;;5.30;99.90;;;;;;623823;230;26583;-82
2021/12/24 03:37:38;;;;;;;37.53;21.87;;;5.50;99.90;;;;;;636367;226;26570;-83
2021/12/24 03:40:07;;;;;;;35.17;21.07;;;5.20;99.90;;;;;;636388;226;26611;-83
2021/12/24 03:42:37;;;;;;;35.83;21.30;;;5.20;99.90;;;;;;636356;226;26577;-82
2021/12/24 03:45:18;;;;;;;34.33;21.67;;;5.00;99.90;;;;;;633097;226;26556;-83
2021/12/24 03:47:38;;;;;;;37.50;22.63;;;4.80;99.90;;;;;;631514;226;26560;-83
2021/12/24 03:50:07;;;;;;;36.30;22.57;;;4.60;99.90;;;;;;629655;226;26535;-83
2021/12/24 03:53:00;;;;;;;36.37;21.63;;;4.90;99.90;;;;;;633936;226;26519;-82
2021/12/24 03:55:06;;;;;;;36.60;22.13;;;4.90;99.90;;;;;;632967;226;26551;-82
2021/12/24 03:57:35;;;;;;;33.73;21.27;;;5.30;99.90;;;;;;629831;224;26595;-82
2021/12/24 04:00:05;;;;;;;32.17;21.10;;;5.40;99.90;;;;;;635848;226;26572;-82
2021/12/24 04:02:32;;;;;;;37.60;21.13;;;5.40;99.90;;;;;;640168;224;26573;-82
2021/12/24 04:05:00;;;;;;;32.93;21.33;;;5.20;99.90;;;;;;640134;225;26801;-83
2021/12/24 04:07:27;;;;;;;34.07;20.17;;;5.20;99.90;;;;;;629345;225;26823;-82
2021/12/24 04:10:02;;;;;;;30.80;20.43;;;5.00;99.90;;;;;;627407;225;26602;-82
2021/12/24 04:12:24;;;;;;;34.90;21.10;;;5.10;99.90;;;;;;624011;227;26638;-82
2021/12/24 04:14:51;;;;;;;34.00;21.03;;;5.10;99.90;;;;;;624532;230;26634;-82
2021/12/24 04:17:18;;;;;;;34.13;21.47;;;5.30;99.90;;;;;;624286;230;26538;-82
2021/12/24 04:24:53;;;;;;;30.47;20.83;;;5.70;99.90;;;;;;624128;230;26555;-84
2021/12/24 04:27:22;;;;;;;32.30;20.00;;;5.80;99.90;;;;;;624158;230;26559;-83
2021/12/24 04:29:51;;;;;;;30.30;19.90;;;5.80;99.90;;;;;;625903;226;26921;-84
2021/12/24 04:32:23;;;;;;;29.77;19.57;;;5.40;99.90;;;;;;632585;226;26609;-84
2021/12/24 04:34:49;;;;;;;30.10;19.80;;;5.40;99.90;;;;;;630033;226;26808;-84
2021/12/24 04:50:58;;;;;;;34.57;20.53;;;5.20;99.90;;;;;;636458;224;26850;-84
2021/12/24 04:53:12;;;;;;;27.77;18.97;;;5.50;99.90;;;;;;626072;227;26847;-83
2021/12/24 05:03:04;;;;;;;32.33;19.17;;;5.30;99.90;;;;;;636465;226;26516;-84
2021/12/24 05:05:40;;;;;;;29.23;18.40;;;5.50;99.90;;;;;;635964;226;26780;-83
2021/12/24 05:08:18;;;;;;;28.93;18.77;;;5.30;99.90;;;;;;629000;226;26634;-83
2021/12/24 05:10:40;;;;;;;24.17;16.40;;;5.30;99.90;;;;;;635655;224;26631;-83
2021/12/24 05:13:07;;;;;;;27.77;17.53;;;5.40;99.90;;;;;;635499;226;26824;-83
2021/12/24 05:15:37;;;;;;;25.53;16.87;;;5.40;99.90;;;;;;631827;226;26541;-83
2021/12/24 05:18:11;;;;;;;24.67;15.77;;;5.10;99.90;;;;;;624497;230;26775;-83
2021/12/24 05:23:03;;;;;;;25.07;15.67;;;5.40;99.90;;;;;;624432;230;26569;-83
2021/12/24 05:25:31;;;;;;;25.53;16.50;;;5.50;99.90;;;;;;624521;230;26850;-82
2021/12/24 05:27:58;;;;;;;23.07;15.37;;;5.50;99.90;;;;;;624460;226;26587;-83
2021/12/24 05:30:25;;;;;;;21.37;13.57;;;5.70;99.90;;;;;;624074;230;26838;-83
2021/12/24 05:32:53;;;;;;;25.03;14.47;;;5.90;99.90;;;;;;636776;226;26602;-83
2021/12/24 05:35:21;;;;;;;21.87;13.37;;;5.60;99.90;;;;;;636595;226;26591;-83
2021/12/24 05:37:49;;;;;;;21.97;12.70;;;5.60;99.90;;;;;;636597;226;26555;-83
2021/12/24 05:40:17;;;;;;;18.13;12.60;;;5.80;99.90;;;;;;635859;226;26610;-83
2021/12/24 05:42:44;;;;;;;17.97;12.40;;;5.80;99.90;;;;;;636495;226;26594;-84
2021/12/24 05:45:11;;;;;;;17.27;12.83;;;5.50;99.90;;;;;;635216;225;26610;-83
2021/12/24 05:47:38;;;;;;;16.30;12.67;;;5.30;99.90;;;;;;623812;226;26881;-81
2021/12/24 05:50:06;;;;;;;16.80;13.03;;;5.50;99.90;;;;;;623803;230;26609;-82
2021/12/24 05:52:33;;;;;;;15.40;10.83;;;5.80;99.90;;;;;;623860;230;26809;-82
2021/12/24 05:55:00;;;;;;;16.17;11.87;;;6.00;99.90;;;;;;634831;226;26534;-83
2021/12/24 05:57:28;;;;;;;12.50;9.83;;;5.90;99.90;;;;;;619098;227;26809;-82
2021/12/24 05:59:56;;;;;;;12.30;9.60;;;6.00;99.90;;;;;;623735;230;26622;-82
2021/12/24 06:02:23;;;;;;;12.00;8.53;;;6.00;99.90;;;;;;623804;230;26538;-82
2021/12/24 06:04:50;;;;;;;11.40;8.70;;;5.80;99.90;;;;;;623811;230;26813;-83
2021/12/24 06:07:18;;;;;;;11.70;9.70;;;5.70;99.90;;;;;;633096;227;26547;-82
2021/12/24 06:09:45;;;;;;;10.53;8.40;;;5.70;99.90;;;;;;633780;227;26829;-83
2021/12/24 06:12:12;;;;;;;10.00;8.60;;;5.70;99.90;;;;;;633841;227;26749;-82
2021/12/24 06:14:41;;;;;;;9.63;8.40;;;5.80;99.90;;;;;;634492;226;26789;-82
2021/12/24 06:17:13;;;;;;;9.60;8.40;;;6.00;99.90;;;;;;636428;226;26547;-82
2021/12/24 06:19:34;;;;;;;12.50;8.93;;;6.10;99.90;;;;;;635843;226;26556;-83
2021/12/24 06:22:02;;;;;;;11.80;9.43;;;5.90;99.90;;;;;;634059;224;26602;-82
2021/12/24 06:24:30;;;;;;;9.47;7.47;;;5.90;99.90;;;;;;625208;230;26569;-82
2021/12/24 06:26:57;;;;;;;8.60;7.70;;;5.90;99.90;;;;;;624824;230;26827;-82
2021/12/24 06:29:24;;;;;;;8.00;7.20;;;5.90;99.90;;;;;;628149;226;26596;-83
2021/12/24 06:31:51;;;;;;;9.63;8.07;;;6.10;99.90;;;;;;637099;226;26877;-82
2021/12/24 06:34:19;;;;;;;8.97;8.07;;;6.00;99.90;;;;;;637124;226;26536;-79
2021/12/24 06:36:49;;;;;;;9.30;8.40;;;5.90;99.90;;;;;;637213;226;26557;-80
2021/12/24 06:39:14;;;;;;;9.33;8.37;;;5.90;99.90;;;;;;636892;226;26555;-79
2021/12/24 06:41:41;;;;;;;8.27;7.43;;;5.90;99.90;;;;;;636808;226;26587;-79
2021/12/24 06:44:11;;;;;;;7.40;6.70;;;6.00;99.90;;;;;;636786;226;26912;-80
2021/12/24 06:46:37;;;;;;;8.70;7.87;;;6.10;99.90;;;;;;636717;226;26591;-80
2021/12/24 06:49:04;;;;;;;7.50;6.80;;;6.00;99.90;;;;;;625377;226;26527;-80
2021/12/24 06:51:32;;;;;;;8.33;7.53;;;6.00;99.90;;;;;;632682;226;26590;-80
2021/12/24 06:53:59;;;;;;;10.20;7.07;;;6.00;99.90;;;;;;636791;226;26590;-79
2021/12/24 06:56:26;;;;;;;7.90;7.20;;;6.20;99.90;;;;;;636794;226;26860;-79
2021/12/24 06:58:53;;;;;;;8.40;7.60;;;6.10;99.90;;;;;;636473;226;26597;-80
2021/12/24 07:01:20;;;;;;;8.83;7.93;;;6.00;99.90;;;;;;635632;226;26809;-80
2021/12/24 07:03:48;;;;;;;7.80;7.10;;;6.00;99.90;;;;;;624648;226;26590;-79
2021/12/24 07:06:16;;;;;;;7.43;6.83;;;6.10;99.90;;;;;;627241;226;26795;-79
2021/12/24 07:08:44;;;;;;;8.37;7.57;;;6.10;99.90;;;;;;636427;226;26602;-80
2021/12/24 07:11:11;;;;;;;8.93;8.13;;;6.10;99.90;;;;;;636401;226;26563;-80
2021/12/24 07:13:38;;;;;;;6.97;6.37;;;6.40;99.90;;;;;;636373;226;27226;-80
2021/12/24 07:16:05;;;;;;;6.67;6.07;;;6.30;99.90;;;;;;634179;226;26541;-80
2021/12/24 07:18:32;;;;;;;7.00;6.40;;;6.50;99.90;;;;;;626497;226;26605;-80
2021/12/24 07:21:00;;;;;;;7.13;6.43;;;6.50;99.90;;;;;;627425;226;26602;-80
2021/12/24 07:23:28;;;;;;;6.37;5.80;;;6.20;99.90;;;;;;636508;226;26539;-80
2021/12/24 07:25:55;;;;;;;6.90;6.27;;;6.20;99.90;;;;;;635688;226;26952;-80
2021/12/24 07:28:23;;;;;;;6.20;5.70;;;6.10;99.90;;;;;;624449;227;26611;-80
2021/12/24 07:30:50;;;;;;;6.17;5.67;;;6.00;99.90;;;;;;629302;226;26813;-80
2021/12/24 07:33:18;;;;;;;6.30;5.70;;;6.00;99.90;;;;;;637516;222;26587;-79
2021/12/24 07:35:46;;;;;;;5.83;5.43;;;6.00;99.90;;;;;;636207;225;26594;-79
2021/12/24 07:38:14;;;;;;;6.07;5.57;;;6.00;99.90;;;;;;635265;226;26666;-79
2021/12/24 07:40:42;;;;;;;5.27;4.87;;;6.10;99.90;;;;;;635145;222;26566;-79
2021/12/24 07:43:09;;;;;;;5.80;5.30;;;6.10;99.90;;;;;;634905;226;26880;-79
2021/12/24 07:45:38;;;;;;;5.53;5.13;;;6.20;99.90;;;;;;634863;226;26576;-80
2021/12/24 07:48:10;;;;;;;5.43;5.03;;;6.20;99.90;;;;;;628596;226;26820;-80
2021/12/24 07:53:14;;;;;;;5.57;5.07;;;6.70;99.90;;;;;;628020;226;26623;-80
2021/12/24 07:55:42;;;;;;;6.03;5.53;;;6.40;99.90;;;;;;632225;226;26612;-79
2021/12/24 07:58:09;;;;;;;5.60;5.10;;;6.10;99.90;;;;;;633623;226;26573;-79
2021/12/24 08:00:36;;;;;;;5.97;5.37;;;6.30;99.90;;;;;;631254;227;26840;-79
2021/12/24 08:03:04;;;;;;;5.70;5.20;;;6.50;99.90;;;;;;624295;230;26522;-80
2021/12/24 08:05:33;;;;;;;5.17;4.77;;;6.40;99.90;;;;;;631551;226;26600;-79
2021/12/24 08:08:00;;;;;;;5.80;5.30;;;6.40;99.90;;;;;;635444;226;26591;-79
2021/12/24 08:10:27;;;;;;;5.73;5.30;;;6.40;99.90;;;;;;632072;226;26640;-80
2021/12/24 08:12:53;;;;;;;5.90;5.40;;;6.30;99.90;;;;;;624342;226;26913;-79
2021/12/24 08:15:21;;;;;;;6.17;5.67;;;6.20;99.90;;;;;;623879;230;26614;-79
2021/12/24 08:17:49;;;;;;;6.47;5.97;;;6.20;99.90;;;;;;624425;226;26601;-79
2021/12/24 08:20:21;;;;;;;5.87;5.37;;;6.20;99.90;;;;;;631365;226;26634;-79
2021/12/24 08:22:43;;;;;;;5.63;5.13;;;6.20;99.90;;;;;;623553;230;26863;-79
2021/12/24 08:25:10;;;;;;;6.00;5.50;;;6.20;99.90;;;;;;626297;226;26621;-79
2021/12/24 08:27:39;;;;;;;6.27;5.67;;;6.40;99.90;;;;;;627254;226;26831;-79
2021/12/24 08:30:07;;;;;;;6.33;5.83;;;6.30;99.90;;;;;;624596;226;26625;-80
2021/12/24 08:32:38;;;;;;;5.80;5.40;;;6.30;99.90;;;;;;633345;226;26610;-79
2021/12/24 08:35:01;;;;;;;5.53;5.13;;;6.40;99.90;;;;;;632046;226;26640;-79
2021/12/24 08:37:29;;;;;;;5.83;5.43;;;6.40;99.90;;;;;;630902;226;26913;-79
2021/12/24 08:39:56;;;;;;;5.67;5.27;;;6.20;99.90;;;;;;629566;226;26593;-79
2021/12/24 08:42:23;;;;;;;6.10;5.60;;;6.50;99.90;;;;;;628049;226;26590;-79
2021/12/24 08:44:52;;;;;;;6.07;5.57;;;6.40;99.90;;;;;;635839;224;26615;-79
2021/12/24 08:47:18;;;;;;;5.57;5.07;;;6.30;99.90;;;;;;629746;225;26604;-81
2021/12/24 08:49:45;;;;;;;5.63;5.10;;;6.40;99.90;;;;;;632509;224;26603;-80
2021/12/24 08:52:13;;;;;;;5.27;4.93;;;6.70;99.90;;;;;;619026;226;26866;-80
2021/12/24 08:54:40;;;;;;;5.70;5.30;;;6.60;99.90;;;;;;630725;225;26579;-81
2021/12/24 08:57:07;;;;;;;4.80;4.50;;;6.60;99.90;;;;;;631215;226;26924;-81
2021/12/24 08:59:35;;;;;;;4.43;4.13;;;6.40;99.90;;;;;;629333;226;26622;-80
2021/12/24 09:02:03;;;;;;;5.23;4.83;;;6.30;99.90;;;;;;632056;226;26576;-74
2021/12/24 09:04:30;;;;;;;5.60;5.10;;;6.50;99.90;;;;;;630812;226;26858;-75
2021/12/24 09:06:58;;;;;;;4.77;4.37;;;6.60;99.90;;;;;;630585;226;26916;-75
2021/12/24 09:09:27;;;;;;;4.50;4.20;;;6.50;99.90;;;;;;631156;226;26617;-75
2021/12/24 09:11:52;;;;;;;4.20;3.90;;;6.60;99.90;;;;;;633715;226;26596;-75
2021/12/24 09:14:19;;;;;;;4.37;4.03;;;6.50;99.90;;;;;;635546;226;26614;-75
2021/12/24 09:16:47;;;;;;;4.30;3.97;;;6.40;99.90;;;;;;632358;226;26822;-75
2021/12/24 09:19:17;;;;;;;4.50;4.10;;;6.60;99.90;;;;;;635163;224;26621;-78
2021/12/24 09:21:41;;;;;;;4.30;4.00;;;6.40;99.90;;;;;;623616;230;26595;-78
2021/12/24 09:24:10;;;;;;;3.43;3.23;;;6.50;99.90;;;;;;635316;226;26580;-79
2021/12/24 09:26:37;;;;;;;3.63;3.43;;;6.50;99.90;;;;;;633459;226;26511;-80
2021/12/24 09:29:04;;;;;;;2.80;2.70;;;6.50;99.90;;;;;;634144;222;26555;-79
2021/12/24 09:31:31;;;;;;;3.60;3.40;;;6.50;99.90;;;;;;623753;230;27089;-80
2021/12/24 09:33:58;;;;;;;3.53;3.33;;;6.30;99.90;;;;;;623850;230;26574;-77
2021/12/24 09:36:28;;;;;;;3.00;2.90;;;6.30;99.90;;;;;;629819;227;26874;-78
2021/12/24 09:38:53;;;;;;;2.87;2.67;;;6.20;99.90;;;;;;634033;222;26564;-78
2021/12/24 09:41:20;;;;;;;3.27;3.17;;;6.10;99.90;;;;;;630686;226;26854;-78
2021/12/24 09:43:48;;;;;;;3.23;3.10;;;6.10;99.90;;;;;;625509;226;26580;-79
2021/12/24 09:46:16;;;;;;;3.30;3.10;;;6.10;99.90;;;;;;626415;226;26891;-79
2021/12/24 09:48:43;;;;;;;2.60;2.50;;;6.10;99.90;;;;;;624227;226;26599;-79
2021/12/24 09:51:10;;;;;;;2.63;2.53;;;6.00;99.90;;;;;;629043;226;26606;-80
2021/12/24 09:53:38;;;;;;;2.60;2.50;;;6.10;99.90;;;;;;631086;226;26593;-80
2021/12/24 09:56:06;;;;;;;3.00;2.80;;;6.10;99.90;;;;;;636012;222;26593;-81
2021/12/24 09:58:33;;;;;;;3.03;2.83;;;6.10;99.90;;;;;;630015;225;26578;-81
2021/12/24 10:01:00;;;;;;;4.57;2.70;;;6.10;99.90;;;;;;626299;226;26880;-80
2021/12/24 10:03:29;;;;;;;3.20;3.00;;;6.30;99.90;;;;;;634731;226;26592;-80
2021/12/24 10:05:57;;;;;;;2.87;2.77;;;6.50;99.90;;;;;;627194;226;26625;-80
2021/12/24 10:08:24;;;;;;;2.90;2.80;;;6.50;99.90;;;;;;629507;226;26805;-79
2021/12/24 10:10:52;;;;;;;3.20;3.00;;;6.40;99.90;;;;;;634498;226;26572;-79
2021/12/24 10:13:27;;;;;;;2.93;2.83;;;6.30;99.90;;;;;;624672;226;27312;-81
2021/12/24 10:15:56;;;;;;;3.57;3.27;;;6.20;99.90;;;;;;624219;230;26535;-79
2021/12/24 10:18:28;;;;;;;3.43;3.23;;;6.20;99.90;;;;;;623932;230;26541;-81
2021/12/24 10:20:58;;;;;;;3.07;2.87;;;6.30;99.90;;;;;;626240;226;26572;-76
2021/12/24 10:23:37;;;;;;;3.80;3.50;;;6.20;99.90;;;;;;632102;226;26586;-76
2021/12/24 10:26:12;;;;;;;4.40;4.03;;;6.20;99.90;;;;;;632927;226;26800;-76
2021/12/24 10:28:39;;;;;;;4.57;4.17;;;6.10;99.90;;;;;;629007;226;26613;-78
2021/12/24 10:31:07;;;;;;;4.67;4.37;;;6.00;99.90;;;;;;633326;226;26611;-76
2021/12/24 10:33:34;;;;;;;3.63;3.43;;;5.90;99.90;;;;;;634030;226;26603;-76
2021/12/24 10:36:01;;;;;;;3.87;3.60;;;6.10;99.90;;;;;;636245;226;26816;-77
2021/12/24 10:38:28;;;;;;;3.83;3.53;;;6.10;99.90;;;;;;628511;226;26559;-77
2021/12/24 10:40:57;;;;;;;4.47;4.17;;;6.20;99.90;;;;;;634894;226;26832;-76
2021/12/24 10:43:24;;;;;;;4.00;3.63;;;6.60;99.90;;;;;;635779;226;26590;-77
2021/12/24 10:46:13;;;;;;;3.73;3.43;;;6.20;99.90;;;;;;634635;226;26559;-76
2021/12/24 10:48:47;;;;;;;3.63;3.40;;;6.20;99.90;;;;;;626748;229;26799;-77
2021/12/24 10:51:19;;;;;;;2.90;2.80;;;6.20;99.90;;;;;;627551;226;26571;-76
2021/12/24 10:53:35;;;;;;;3.27;3.07;;;6.20;99.90;;;;;;625838;226;26586;-76
2021/12/24 10:56:06;;;;;;;5.23;2.93;;;5.80;99.90;;;;;;627100;226;26788;-76
2021/12/24 10:58:33;;;;;;;3.47;3.10;;;5.90;99.90;;;;;;623587;226;26625;-76
2021/12/24 11:00:59;;;;;;;3.70;3.50;;;5.90;99.90;;;;;;628599;226;26868;-76
2021/12/24 11:03:26;;;;;;;3.43;3.20;;;6.10;99.90;;;;;;628172;226;26598;-77
2021/12/24 11:05:54;;;;;;;3.40;3.10;;;6.00;99.90;;;;;;631636;222;26795;-76
2021/12/24 11:08:22;;;;;;;3.43;3.23;;;5.80;99.90;;;;;;629823;221;26805;-76
2021/12/24 11:10:50;;;;;;;3.70;3.30;;;5.80;99.90;;;;;;634228;225;26593;-76
2021/12/24 11:13:18;;;;;;;4.30;3.90;;;5.70;99.90;;;;;;632790;225;26790;-76
2021/12/24 11:15:46;;;;;;;3.40;3.20;;;5.60;99.90;;;;;;628641;226;26541;-77
2021/12/24 11:18:16;;;;;;;3.40;3.20;;;5.40;99.90;;;;;;627270;226;26599;-76
2021/12/24 11:20:43;;;;;;;3.83;3.53;;;5.40;99.90;;;;;;634681;226;26633;-77
2021/12/24 11:23:12;;;;;;;3.37;3.17;;;5.50;99.90;;;;;;634012;226;26569;-76
2021/12/24 11:25:40;;;;;;;5.40;4.10;;;5.60;99.90;;;;;;624234;230;26598;-76
2021/12/24 11:28:08;;;;;;;3.30;3.00;;;5.50;99.90;;;;;;634233;226;26596;-78
2021/12/24 11:30:35;;;;;;;3.67;3.47;;;5.50;99.90;;;;;;631688;226;26816;-78
2021/12/24 11:33:02;;;;;;;3.93;3.63;;;5.70;99.90;;;;;;632591;226;26506;-76
2021/12/24 11:35:29;;;;;;;3.07;2.83;;;5.50;99.90;;;;;;628666;226;26763;-76
2021/12/24 11:37:57;;;;;;;3.33;3.13;;;5.40;99.90;;;;;;635764;226;26787;-76
2021/12/24 11:40:24;;;;;;;3.10;2.90;;;5.30;99.90;;;;;;632767;226;26649;-77
2021/12/24 11:42:54;;;;;;;4.07;3.00;;;5.40;99.90;;;;;;627313;226;26790;-76
2021/12/24 11:45:21;;;;;;;2.27;2.17;;;5.30;99.90;;;;;;628220;226;26829;-77
2021/12/24 11:47:47;;;;;;;2.33;2.20;;;5.60;99.90;;;;;;633910;226;26640;-76
2021/12/24 11:50:16;;;;;;;2.30;2.20;;;5.40;99.90;;;;;;634026;226;26836;-77
2021/12/24 11:52:42;;;;;;;1.93;1.83;;;5.20;99.90;;;;;;627401;226;26551;-77
2021/12/24 11:55:09;;;;;;;1.70;1.60;;;5.10;99.90;;;;;;627903;226;26642;-77
2021/12/24 11:57:36;;;;;;;2.00;1.90;;;4.90;99.90;;;;;;635056;226;26979;-77
2021/12/24 12:00:10;;;;;;;2.30;2.20;;;5.00;99.90;;;;;;624240;226;26645;-81
2021/12/24 12:02:40;;;;;;;2.10;2.03;;;5.10;99.90;;;;;;633406;226;26577;-82
2021/12/24 12:05:11;;;;;;;2.37;2.27;;;5.10;99.90;;;;;;629146;226;26547;-82
2021/12/24 12:10:46;;;;;;;2.37;2.27;;;5.20;99.90;;;;;;647757;218;26759;-78
2021/12/24 12:13:35;;;;;;;2.27;2.17;;;5.00;99.90;;;;;;648302;219;26805;-79
2021/12/24 12:16:02;;;;;;;2.97;2.40;;;4.40;99.90;;;;;;648075;219;26497;-78
2021/12/24 12:18:29;;;;;;;2.03;1.93;;;4.40;99.90;;;;;;651827;220;26565;-80
2021/12/24 12:21:12;;;;;;;2.20;2.10;;;4.40;99.90;;;;;;655933;218;26564;-81
2021/12/24 12:26:42;;;;;;;2.17;2.07;;;4.40;99.90;;;;;;647780;219;26546;-79
2021/12/24 12:29:16;;;;;;;2.40;2.20;;;4.40;99.90;;;;;;650977;220;26774;-80
2021/12/24 12:31:44;;;;;;;2.27;2.17;;;4.50;99.90;;;;;;648275;218;26537;-81
2021/12/24 12:34:23;;;;;;;2.07;1.97;;;4.10;99.90;;;;;;649673;219;26569;-79
2021/12/24 12:36:51;;;;;;;2.40;2.30;;;4.10;99.90;;;;;;648128;220;26550;-84
2021/12/24 12:39:27;;;;;;;2.30;2.20;;;4.20;99.90;;;;;;647875;221;26572;-81
2021/12/24 12:41:54;;;;;;;2.67;2.53;;;4.50;99.90;;;;;;650028;220;26572;-80
2021/12/24 12:44:21;;;;;;;1.80;1.80;;;4.20;99.90;;;;;;638021;223;26894;-78
2021/12/24 12:46:51;;;;;;;2.23;2.13;;;3.70;99.90;;;;;;649720;220;26585;-78
2021/12/24 12:49:17;;;;;;;2.23;2.13;;;3.80;99.90;;;;;;651451;220;26486;-77
2021/12/24 12:51:59;;;;;;;2.57;2.37;;;3.80;99.90;;;;;;651456;219;26741;-78
2021/12/24 12:54:33;;;;;;;2.63;2.53;;;3.90;99.90;;;;;;652743;220;26499;-79
2021/12/24 12:57:22;;;;;;;2.33;2.23;;;3.80;99.90;;;;;;654534;219;26509;-76
2021/12/24 13:00:17;;;;;;;3.40;3.20;;;3.60;99.90;;;;;;653974;219;26810;-74
2021/12/24 13:03:06;;;;;;;3.43;3.23;;;3.60;99.90;;;;;;651851;219;26778;-75
2021/12/24 13:05:27;;;;;;;3.40;3.20;;;3.50;99.90;;;;;;652932;219;26559;-75
2021/12/24 13:07:59;;;;;;;3.50;3.30;;;3.40;99.90;;;;;;655321;219;27189;-75
2021/12/24 13:10:22;;;;;;;3.87;3.67;;;3.60;99.90;;;;;;648804;220;26572;-75
2021/12/24 13:12:50;;;;;;;4.20;3.90;;;3.60;99.90;;;;;;651251;220;26547;-76
2021/12/24 13:15:17;;;;;;;4.30;4.00;;;3.50;99.90;;;;;;649682;219;26850;-74
2021/12/24 13:17:46;;;;;;;4.63;4.33;;;3.40;99.90;;;;;;649242;220;26560;-74
2021/12/24 13:20:19;;;;;;;4.53;4.13;;;3.40;99.90;;;;;;639905;224;26898;-73
2021/12/24 13:22:41;;;;;;;4.87;4.47;;;3.20;99.90;;;;;;637049;224;26753;-74
2021/12/24 13:25:11;;;;;;;4.57;4.27;;;3.20;99.90;;;;;;650717;220;26538;-73
2021/12/24 13:27:44;;;;;;;6.03;5.50;;;2.90;99.90;;;;;;649564;221;26529;-74
2021/12/24 13:30:11;;;;;;;5.00;4.63;;;2.90;99.90;;;;;;651802;218;26832;-75
2021/12/24 13:32:40;;;;;;;5.10;4.70;;;2.90;99.90;;;;;;653101;219;26474;-74
2021/12/24 13:35:08;;;;;;;5.27;4.73;;;3.00;99.90;;;;;;650261;220;26478;-74
2021/12/24 13:37:35;;;;;;;5.47;5.07;;;3.20;99.90;;;;;;629801;228;26975;-74
2021/12/24 13:40:02;;;;;;;5.97;5.47;;;3.10;99.90;;;;;;627457;228;26540;-74
2021/12/24 13:42:29;;;;;;;5.13;4.73;;;3.20;99.90;;;;;;649735;220;26826;-74
2021/12/24 13:44:59;;;;;;;5.60;5.20;;;3.20;99.90;;;;;;650762;219;26502;-75
2021/12/24 13:47:36;;;;;;;6.13;5.53;;;3.20;99.90;;;;;;653902;219;26523;-75
2021/12/24 13:50:09;;;;;;;6.07;5.57;;;3.10;99.90;;;;;;651925;219;26537;-75
2021/12/24 13:55:15;;;;;;;7.23;6.53;;;3.10;99.90;;;;;;654184;219;26524;-74
2021/12/24 13:57:42;;;;;;;6.30;5.77;;;3.20;99.90;;;;;;654328;219;26518;-75
2021/12/24 14:00:11;;;;;;;6.93;6.23;;;3.00;99.90;;;;;;653691;218;26543;-77
2021/12/24 14:02:38;;;;;;;6.87;6.23;;;2.90;99.90;;;;;;653972;219;26529;-78
2021/12/24 14:05:05;;;;;;;8.17;7.13;;;2.90;99.90;;;;;;654701;219;26518;-78
2021/12/24 14:07:32;;;;;;;7.60;6.90;;;2.80;99.90;;;;;;655363;219;26552;-78
2021/12/24 14:10:00;;;;;;;7.80;7.00;;;3.00;99.90;;;;;;652634;219;26560;-78
2021/12/24 14:12:28;;;;;;;8.00;7.30;;;3.00;99.90;;;;;;654213;219;26547;-78
2021/12/24 14:15:08;;;;;;;8.13;7.33;;;2.80;99.90;;;;;;649272;220;26767;-77